Time;durP1;ratioP1;P1;durP2;ratioP2;P2;SDS_P1;SDS_P2;PMS_P1;PMS_P2;Temp;Humidity;BMP_temperature;BMP_pressure;BME280_temperature;BME280_humidity;BME280_pressure;Samples;Min_cycle;Max_cycle;Signal;HPM_P1;HPM_P2
2023/09/23 00:02:09;;;;;;;;;2.67;1.33;;;;;13.23;100.00;100999.53;5124666;27;45263;-77
2023/09/23 00:04:35;;;;;;;;;5.00;2.00;;;;;13.19;100.00;100997.97;5141272;27;45283;-78
2023/09/23 00:07:00;;;;;;;;;2.33;1.00;;;;;13.21;100.00;101006.72;5122051;27;46734;-77
2023/09/23 00:09:28;;;;;;;;;2.00;1.00;;;;;13.19;100.00;101013.91;5120816;27;44819;-78
2023/09/23 00:11:54;;;;;;;;;3.00;2.00;;;;;13.12;100.00;101002.75;5113330;27;45174;-78
2023/09/23 00:14:19;;;;;;;;;1.00;1.00;;;;;13.15;100.00;101013.25;5116285;27;45247;-77
2023/09/23 00:16:46;;;;;;;;;3.00;2.00;;;;;13.15;100.00;101013.25;5136775;27;45536;-78
2023/09/23 00:19:12;;;;;;;;;3.00;1.33;;;;;13.13;100.00;101023.06;5132384;27;44730;-77
2023/09/23 00:21:37;;;;;;;;;4.00;1.00;;;;;12.93;100.00;100992.25;5121629;27;45563;-77
2023/09/23 00:24:05;;;;;;;;;1.00;1.00;;;;;12.87;100.00;100989.06;5123420;27;57615;-78
2023/09/23 00:26:32;;;;;;;;;2.67;1.00;;;;;13.02;100.00;101031.59;5125544;27;45199;-77
2023/09/23 00:28:58;;;;;;;;;1.00;1.00;;;;;13.01;100.00;101039.66;5109645;27;44819;-77
2023/09/23 00:31:24;;;;;;;;;1.00;1.00;;;;;12.98;100.00;101040.66;5106431;27;45244;-77
2023/09/23 00:33:50;;;;;;;;;0.00;0.00;;;;;12.93;100.00;101031.22;5118129;27;45201;-77
2023/09/23 00:36:15;;;;;;;;;4.00;1.33;;;;;12.91;100.00;101036.63;5125202;27;46060;-77
2023/09/23 00:38:41;;;;;;;;;2.00;1.00;;;;;12.86;100.00;101035.16;5118579;27;45489;-77
2023/09/23 00:41:06;;;;;;;;;0.00;0.00;;;;;12.90;100.00;101037.56;5120510;27;44953;-78
2023/09/23 00:43:32;;;;;;;;;0.00;0.00;;;;;12.80;100.00;101031.00;5121741;27;44799;-76
2023/09/23 00:45:59;;;;;;;;;1.00;1.00;;;;;12.84;100.00;101042.31;5126214;27;48396;-76
2023/09/23 00:48:25;;;;;;;;;1.00;1.00;;;;;12.82;100.00;101041.56;5111474;27;45297;-76
2023/09/23 00:50:53;;;;;;;;;0.00;0.00;;;;;12.71;100.00;101028.84;5110307;27;45274;-77
2023/09/23 00:53:20;;;;;;;;;4.00;1.00;;;;;12.72;100.00;101032.38;5098273;28;45463;-76
2023/09/23 00:55:47;;;;;;;;;2.33;1.00;;;;;12.77;100.00;101044.44;5116583;27;45392;-77
2023/09/23 00:58:14;;;;;;;;;0.00;0.00;;;;;12.75;100.00;101032.19;5119794;27;44946;-76
2023/09/23 01:00:45;;;;;;;;;4.00;1.67;;;;;12.66;100.00;101025.59;5116028;27;45013;-77
2023/09/23 01:03:11;;;;;;;;;0.00;0.00;;;;;12.72;100.00;101033.22;5100632;27;45267;-76
2023/09/23 01:05:36;;;;;;;;;0.33;0.33;;;;;12.78;100.00;101048.81;5124295;27;46183;-77
2023/09/23 01:08:07;;;;;;;;;0.00;0.00;;;;;12.79;100.00;101050.56;5117111;27;45251;-77
2023/09/23 01:10:32;;;;;;;;;2.00;1.00;;;;;12.77;100.00;101049.75;5118790;27;45613;-76
2023/09/23 01:12:57;;;;;;;;;1.67;0.00;;;;;12.80;100.00;101052.25;5121385;27;45242;-77
2023/09/23 01:15:28;;;;;;;;;1.00;0.00;;;;;12.79;100.00;101053.22;5121294;27;46636;-77
2023/09/23 01:17:54;;;;;;;;;0.00;0.00;;;;;12.82;100.00;101057.50;5118165;27;45369;-77
2023/09/23 01:20:20;;;;;;;;;0.33;0.33;;;;;12.80;100.00;101054.03;5109285;27;44798;-76
2023/09/23 01:22:47;;;;;;;;;1.00;1.00;;;;;12.86;100.00;101057.22;5112940;27;45192;-76
2023/09/23 01:25:13;;;;;;;;;4.00;1.33;;;;;12.87;100.00;101064.25;5115510;27;46804;-77
2023/09/23 01:27:39;;;;;;;;;1.00;1.00;;;;;12.88;100.00;101057.16;5123136;27;44740;-77
2023/09/23 01:30:05;;;;;;;;;0.00;0.00;;;;;12.84;100.00;101048.50;5107561;27;45258;-78
2023/09/23 01:32:45;;;;;;;;;0.67;0.67;;;;;12.95;100.00;101058.56;5116491;27;45542;-77
2023/09/23 01:35:11;;;;;;;;;0.00;0.00;;;;;12.93;100.00;101057.75;5108642;27;45415;-77
2023/09/23 01:37:37;;;;;;;;;0.00;0.00;;;;;12.96;100.00;101066.44;5112675;27;45198;-76
2023/09/23 01:40:05;;;;;;;;;1.00;0.00;;;;;12.94;100.00;101049.72;5132311;27;45251;-77
2023/09/23 01:42:32;;;;;;;;;1.33;0.33;;;;;12.91;100.00;101052.56;5106543;27;44690;-76
2023/09/23 01:44:58;;;;;;;;;0.33;0.33;;;;;12.93;100.00;101057.75;5133570;27;45481;-75
2023/09/23 01:47:23;;;;;;;;;0.67;0.67;;;;;12.96;100.00;101057.59;5115844;27;45399;-77
2023/09/23 01:49:49;;;;;;;;;1.00;1.00;;;;;12.78;100.00;101035.56;5114958;27;45302;-77
2023/09/23 01:52:16;;;;;;;;;0.33;0.33;;;;;12.93;100.00;101058.63;5135231;27;45325;-78
2023/09/23 01:54:46;;;;;;;;;1.00;1.00;;;;;12.92;100.00;101070.22;5119445;27;45201;-76
2023/09/23 01:57:16;;;;;;;;;2.67;1.00;;;;;12.86;100.00;101062.53;5120488;27;45657;-76
2023/09/23 01:59:42;;;;;;;;;0.00;0.00;;;;;12.94;100.00;101073.63;5120887;27;45194;-76
2023/09/23 02:02:09;;;;;;;;;1.00;1.00;;;;;12.92;100.00;101067.56;5124757;27;44761;-77
2023/09/23 02:04:39;;;;;;;;;3.00;0.67;;;;;12.92;100.00;101080.81;5141024;27;46344;-78
2023/09/23 02:07:06;;;;;;;;;1.67;1.00;;;;;12.90;100.00;101074.72;5159837;27;45335;-76
2023/09/23 02:09:33;;;;;;;;;1.00;1.00;;;;;12.89;100.00;101083.59;5140579;27;44748;-77
2023/09/23 02:11:59;;;;;;;;;2.00;0.67;;;;;12.88;100.00;101086.34;5120012;27;44988;-76
2023/09/23 02:14:24;;;;;;;;;4.00;1.00;;;;;12.85;100.00;101083.88;5135220;27;46134;-77
2023/09/23 02:16:50;;;;;;;;;2.00;1.00;;;;;12.83;100.00;101072.44;5118044;27;45100;-75
2023/09/23 02:19:16;;;;;;;;;0.00;0.00;;;;;12.84;100.00;101095.41;5103684;27;45349;-76
2023/09/23 02:21:41;;;;;;;;;1.00;1.00;;;;;12.72;100.00;101080.13;5107846;27;45342;-76
2023/09/23 02:24:07;;;;;;;;;0.00;0.00;;;;;12.71;100.00;101095.19;5116719;27;54092;-76
2023/09/23 02:26:32;;;;;;;;;0.00;0.00;;;;;12.76;100.00;101110.91;5137367;27;45287;-75
2023/09/23 02:28:57;;;;;;;;;0.00;0.00;;;;;12.70;100.00;101103.22;5134522;27;44818;-76
2023/09/23 02:31:23;;;;;;;;;2.33;1.33;;;;;12.71;100.00;101116.44;5151905;27;55394;-76
2023/09/23 02:33:48;;;;;;;;;2.00;0.00;;;;;12.68;100.00;101110.41;5133819;27;45134;-76
2023/09/23 02:36:14;;;;;;;;;2.33;0.00;;;;;12.68;100.00;101113.94;5121884;27;44695;-76
2023/09/23 02:38:42;;;;;;;;;1.67;1.00;;;;;12.66;100.00;101113.16;5131520;27;45455;-77
2023/09/23 02:41:08;;;;;;;;;0.00;0.00;;;;;12.65;100.00;101126.50;5140838;27;44766;-76
2023/09/23 02:43:34;;;;;;;;;0.00;0.00;;;;;12.56;100.00;101111.91;5125832;27;47003;-78
2023/09/23 02:46:02;;;;;;;;;0.00;0.00;;;;;12.51;100.00;101108.59;5123270;27;44761;-77
2023/09/23 02:48:28;;;;;;;;;0.00;0.00;;;;;12.61;100.00;101125.78;5124090;27;44821;-77
2023/09/23 02:50:58;;;;;;;;;0.00;0.00;;;;;12.44;100.00;101102.75;5124483;27;45742;-77
2023/09/23 02:53:24;;;;;;;;;1.00;1.00;;;;;12.51;100.00;101122.72;5119751;27;47267;-76
2023/09/23 02:56:06;;;;;;;;;3.00;1.00;;;;;12.39;100.00;101109.22;5111705;27;44712;-77
2023/09/23 02:58:31;;;;;;;;;2.00;1.00;;;;;12.23;100.00;101089.72;5117865;27;44711;-78
2023/09/23 03:01:04;;;;;;;;;1.00;1.00;;;;;12.33;100.00;101101.59;5139608;27;45542;-77
2023/09/23 03:03:33;;;;;;;;;2.00;0.00;;;;;12.44;100.00;101128.41;5104702;28;45355;-76
2023/09/23 03:06:02;;;;;;;;;1.33;0.00;;;;;12.37;100.00;101129.66;5127849;27;44977;-76
2023/09/23 03:08:29;;;;;;;;;1.00;0.00;;;;;12.11;100.00;101088.50;5142555;27;45030;-75
2023/09/23 03:10:56;;;;;;;;;1.00;0.00;;;;;12.36;100.00;101136.78;5144921;27;44979;-77
2023/09/23 03:13:23;;;;;;;;;0.00;0.00;;;;;12.36;100.00;101146.50;5124016;27;45738;-75
2023/09/23 03:16:05;;;;;;;;;0.33;0.33;;;;;12.35;100.00;101150.97;5109753;27;44686;-75
2023/09/23 03:18:39;;;;;;;;;2.00;0.00;;;;;12.28;100.00;101138.94;5110115;27;44748;-76
2023/09/23 03:21:10;;;;;;;;;1.00;0.00;;;;;12.31;100.00;101157.34;5127584;27;45269;-78
2023/09/23 03:23:39;;;;;;;;;0.67;0.33;;;;;12.33;100.00;101159.94;5128436;27;45314;-76
2023/09/23 03:26:06;;;;;;;;;0.33;0.00;;;;;12.31;100.00;101167.09;5129641;27;44731;-77
2023/09/23 03:28:32;;;;;;;;;0.00;0.00;;;;;12.29;100.00;101159.22;5120601;27;45505;-76
2023/09/23 03:31:01;;;;;;;;;3.00;1.00;;;;;12.23;100.00;101158.66;5128178;27;45528;-76
2023/09/23 03:33:27;;;;;;;;;1.00;1.00;;;;;12.15;100.00;101151.06;5116476;27;45635;-76
2023/09/23 03:35:53;;;;;;;;;0.00;0.00;;;;;12.23;100.00;101179.88;5109437;27;45260;-76
2023/09/23 03:38:19;;;;;;;;;1.00;0.00;;;;;12.25;100.00;101175.34;5118526;27;45316;-77
2023/09/23 03:40:52;;;;;;;;;1.00;1.00;;;;;12.15;100.00;101174.06;5119438;27;44707;-77
2023/09/23 03:43:17;;;;;;;;;0.00;0.00;;;;;12.19;100.00;101180.94;5139593;27;45596;-78
2023/09/23 03:45:43;;;;;;;;;1.67;0.00;;;;;12.10;100.00;101160.19;5106551;27;45284;-77
2023/09/23 03:48:10;;;;;;;;;0.00;0.00;;;;;12.13;100.00;101170.63;5106249;27;45514;-78
2023/09/23 03:50:36;;;;;;;;;0.33;0.33;;;;;12.08;100.00;101169.97;5121495;27;45279;-77
2023/09/23 03:53:01;;;;;;;;;0.00;0.00;;;;;12.09;100.00;101175.22;5114608;27;45390;-78
2023/09/23 03:55:26;;;;;;;;;0.00;0.00;;;;;12.01;100.00;101158.81;5126062;27;44950;-76
2023/09/23 03:57:53;;;;;;;;;1.00;1.00;;;;;12.19;100.00;101191.53;5141995;27;49334;-77
2023/09/23 04:00:20;;;;;;;;;0.00;0.00;;;;;12.14;100.00;101186.44;5137352;27;44731;-76
2023/09/23 04:02:47;;;;;;;;;0.67;0.00;;;;;12.19;100.00;101191.53;5122217;27;45188;-76
2023/09/23 04:05:14;;;;;;;;;0.33;0.33;;;;;12.23;100.00;101194.00;5134538;27;44685;-76
2023/09/23 04:07:49;;;;;;;;;2.00;0.00;;;;;12.13;100.00;101183.88;5122303;27;45248;-76
2023/09/23 04:10:17;;;;;;;;;1.00;1.00;;;;;12.20;100.00;101198.56;5118551;27;44723;-76
2023/09/23 04:12:43;;;;;;;;;2.00;1.00;;;;;12.17;100.00;101194.25;5105371;27;47318;-77
2023/09/23 04:15:09;;;;;;;;;0.00;0.00;;;;;12.09;100.00;101190.25;5120085;27;44893;-75
2023/09/23 04:17:36;;;;;;;;;1.00;0.33;;;;;12.17;100.00;101199.56;5122604;27;45194;-76
2023/09/23 04:20:09;;;;;;;;;1.33;0.00;;;;;12.06;100.00;101195.72;5121221;27;44780;-76
2023/09/23 04:22:38;;;;;;;;;1.00;1.00;;;;;12.00;100.00;101183.63;5157913;27;45417;-76
2023/09/23 04:25:05;;;;;;;;;0.00;0.00;;;;;12.02;100.00;101197.66;5124576;27;45256;-76
2023/09/23 04:27:32;;;;;;;;;4.33;1.00;;;;;12.07;100.00;101219.50;5120951;27;45301;-76
2023/09/23 04:29:58;;;;;;;;;0.33;0.33;;;;;11.94;100.00;101190.03;5136084;27;45125;-77
2023/09/23 04:32:24;;;;;;;;;0.00;0.00;;;;;12.08;100.00;101218.56;5109419;27;46416;-76
2023/09/23 04:34:50;;;;;;;;;2.00;1.00;;;;;12.05;100.00;101218.69;5116018;27;45270;-75
2023/09/23 04:37:15;;;;;;;;;2.33;0.00;;;;;11.94;100.00;101198.00;5138701;27;45484;-75
2023/09/23 04:39:40;;;;;;;;;0.33;0.33;;;;;11.95;100.00;101212.97;5161190;27;53789;-76
2023/09/23 04:42:05;;;;;;;;;0.00;0.00;;;;;12.02;100.00;101232.97;5141654;27;46296;-76
2023/09/23 04:44:32;;;;;;;;;3.33;0.00;;;;;11.93;100.00;101228.09;5125712;27;44698;-76
2023/09/23 04:46:57;;;;;;;;;1.00;1.00;;;;;11.97;100.00;101239.44;5124685;27;44806;-78
2023/09/23 04:49:23;;;;;;;;;2.00;0.00;;;;;11.97;100.00;101242.94;5157244;27;45589;-76
2023/09/23 04:51:48;;;;;;;;;2.33;0.00;;;;;11.97;100.00;101235.00;5126693;27;45473;-77
2023/09/23 04:54:13;;;;;;;;;1.00;0.00;;;;;11.89;100.00;101236.25;5127298;27;54511;-76
2023/09/23 04:56:41;;;;;;;;;1.00;1.00;;;;;11.95;100.00;101246.56;5132782;27;45422;-76
2023/09/23 04:59:07;;;;;;;;;1.00;1.00;;;;;11.81;100.00;101228.63;5126716;27;45297;-76
2023/09/23 05:01:32;;;;;;;;;1.00;1.00;;;;;11.86;100.00;101247.00;5120668;27;45377;-76
2023/09/23 05:03:59;;;;;;;;;2.67;1.00;;;;;11.90;100.00;101257.41;5115451;27;45319;-76
2023/09/23 05:06:25;;;;;;;;;2.00;1.00;;;;;11.80;100.00;101248.13;5123842;27;44638;-77
2023/09/23 05:08:50;;;;;;;;;1.00;1.00;;;;;11.88;100.00;101269.84;5118125;27;44937;-76
2023/09/23 05:11:17;;;;;;;;;0.00;0.00;;;;;11.86;100.00;101271.72;5124267;27;49315;-75
2023/09/23 05:13:42;;;;;;;;;0.00;0.00;;;;;11.78;100.00;101255.28;5123432;27;45455;-76
2023/09/23 05:16:07;;;;;;;;;5.00;2.00;;;;;11.84;100.00;101268.28;5121739;27;44735;-76
2023/09/23 05:18:33;;;;;;;;;1.00;1.00;;;;;11.86;100.00;101278.78;5113357;27;45431;-79
2023/09/23 05:20:58;;;;;;;;;4.00;1.00;;;;;11.84;100.00;101280.66;5131550;27;45178;-78
2023/09/23 05:23:24;;;;;;;;;1.00;1.00;;;;;11.80;100.00;101285.25;5119301;27;45934;-78
2023/09/23 05:25:50;;;;;;;;;2.00;0.00;;;;;11.74;100.00;101280.22;5123778;27;44726;-75
2023/09/23 05:28:15;;;;;;;;;1.00;1.00;;;;;11.69;100.00;101287.47;5118322;27;45275;-75
2023/09/23 05:30:41;;;;;;;;;0.33;0.33;;;;;11.55;100.00;101271.28;5117220;27;45389;-75
2023/09/23 05:33:06;;;;;;;;;0.00;0.00;;;;;11.62;100.00;101280.69;5119635;27;44822;-75
2023/09/23 05:35:32;;;;;;;;;1.00;1.00;;;;;11.59;100.00;101294.09;5117768;27;45237;-75
2023/09/23 05:37:57;;;;;;;;;0.67;0.00;;;;;11.61;100.00;101308.16;5119415;27;45192;-75
2023/09/23 05:42:52;;;;;;;;;0.00;0.00;;;;;11.57;100.00;101319.78;5121500;27;45395;-77
2023/09/23 05:45:18;;;;;;;;;0.00;0.00;;;;;11.52;100.00;101327.06;5115596;27;44814;-75
2023/09/23 05:47:46;;;;;;;;;0.00;0.00;;;;;11.47;100.00;101308.72;5119360;27;44932;-76
2023/09/23 05:50:12;;;;;;;;;0.33;0.00;;;;;11.50;100.00;101328.94;5133668;27;47079;-78
2023/09/23 05:52:37;;;;;;;;;0.00;0.00;;;;;11.45;100.00;101325.63;5114761;27;45451;-77
2023/09/23 05:55:04;;;;;;;;;1.00;1.00;;;;;11.40;100.00;101330.22;5107883;27;45440;-76
2023/09/23 05:57:30;;;;;;;;;2.33;0.67;;;;;11.47;100.00;101339.66;5113545;27;46405;-77
2023/09/23 05:59:55;;;;;;;;;3.33;1.00;;;;;11.38;100.00;101337.41;5114347;27;45255;-77
2023/09/23 06:02:21;;;;;;;;;0.67;0.00;;;;;11.31;100.00;101326.19;5129159;27;45536;-77
2023/09/23 06:04:46;;;;;;;;;0.00;0.00;;;;;11.39;100.00;101337.31;5120360;27;45336;-75
2023/09/23 06:07:12;;;;;;;;;0.00;0.00;;;;;11.48;100.00;101360.75;5117048;27;45309;-78
2023/09/23 06:09:37;;;;;;;;;1.33;1.00;;;;;11.42;100.00;101352.22;5095557;27;52360;-75
2023/09/23 06:12:03;;;;;;;;;2.00;0.67;;;;;11.49;100.00;101365.13;5114216;27;53973;-75
2023/09/23 06:14:28;;;;;;;;;3.00;0.33;;;;;11.43;100.00;101359.25;5112055;27;45377;-75
2023/09/23 06:16:53;;;;;;;;;0.00;0.00;;;;;11.39;100.00;101355.84;5118295;27;53370;-77
2023/09/23 06:19:18;;;;;;;;;3.00;2.00;;;;;11.49;100.00;101373.09;5126143;27;45931;-77
2023/09/23 06:21:44;;;;;;;;;2.00;1.00;;;;;11.51;100.00;101370.38;5135412;27;45424;-77
2023/09/23 06:24:10;;;;;;;;;2.33;2.33;;;;;11.61;100.00;101390.28;5130680;27;45126;-75
2023/09/23 06:26:37;;;;;;;;;1.67;1.67;;;;;11.50;100.00;101366.00;5115176;27;44745;-76
2023/09/23 06:29:04;;;;;;;;;1.00;1.00;;;;;11.62;100.00;101385.81;5130184;27;45553;-75
2023/09/23 06:31:30;;;;;;;;;1.67;1.67;;;;;11.66;100.00;101392.72;5125069;27;45602;-76
2023/09/23 06:33:55;;;;;;;;;2.00;1.00;;;;;11.64;100.00;101394.56;5120207;27;45159;-78
2023/09/23 06:36:21;;;;;;;;;1.00;1.00;;;;;11.63;100.00;101388.41;5120752;27;45435;-77
2023/09/23 06:38:46;;;;;;;;;2.00;1.00;;;;;11.55;100.00;101366.66;5140541;27;45219;-77
2023/09/23 06:41:11;;;;;;;;;1.00;1.00;;;;;11.78;100.00;101408.16;5132392;27;45862;-77
2023/09/23 06:43:37;;;;;;;;;1.33;1.00;;;;;11.66;100.00;101382.13;5121146;27;45310;-77
2023/09/23 06:46:02;;;;;;;;;4.67;1.33;;;;;11.88;100.00;101412.97;5129842;27;45057;-78
2023/09/23 06:48:28;;;;;;;;;0.67;0.67;;;;;11.92;100.00;101422.50;5141739;27;45168;-77
2023/09/23 06:50:58;;;;;;;;;2.00;2.00;;;;;11.97;100.00;101425.84;5125256;27;45280;-76
2023/09/23 06:53:23;;;;;;;;;3.00;1.33;;;;;12.01;100.00;101419.47;5118914;27;44721;-77
2023/09/23 06:55:49;;;;;;;;;1.00;1.00;;;;;12.09;100.00;101424.44;5119024;27;45201;-77
2023/09/23 06:58:14;;;;;;;;;1.00;1.00;;;;;12.14;100.00;101430.41;5119972;27;45462;-77
2023/09/23 07:00:40;;;;;;;;;2.00;1.00;;;;;12.16;100.00;101430.34;5121180;27;45293;-77
2023/09/23 07:03:06;;;;;;;;;1.33;1.00;;;;;12.18;100.00;101417.88;5159071;27;44683;-77
2023/09/23 07:05:34;;;;;;;;;0.67;0.00;;;;;12.17;100.00;101414.34;5158992;27;45400;-77
2023/09/23 07:07:59;;;;;;;;;2.00;0.67;;;;;12.25;100.00;101419.31;5105468;27;45200;-77
2023/09/23 07:10:25;;;;;;;;;0.00;0.00;;;;;12.39;100.00;101449.63;5159970;27;44703;-77
2023/09/23 07:12:50;;;;;;;;;1.33;0.00;;;;;12.35;100.00;101429.47;5128228;27;44739;-78
2023/09/23 07:15:15;;;;;;;;;0.00;0.00;;;;;12.44;100.00;101441.44;5122662;27;50099;-77
2023/09/23 07:17:41;;;;;;;;;0.00;0.00;;;;;12.47;100.00;101444.81;5123189;27;45316;-77
2023/09/23 07:20:06;;;;;;;;;1.00;1.00;;;;;12.49;100.00;101436.81;5131037;27;45408;-76
2023/09/23 07:22:32;;;;;;;;;2.33;0.67;;;;;12.65;100.00;101452.91;5128637;27;44897;-77
2023/09/23 07:24:57;;;;;;;;;3.00;0.00;;;;;12.70;100.00;101462.38;5117461;27;44710;-76
2023/09/23 07:27:24;;;;;;;;;0.67;0.67;;;;;12.69;100.00;101455.34;5123709;27;46331;-78
2023/09/23 07:29:49;;;;;;;;;3.00;1.00;;;;;12.77;100.00;101462.94;5129858;27;44823;-76
2023/09/23 07:32:18;;;;;;;;;1.00;1.00;;;;;12.81;100.00;101470.72;5111904;27;45272;-78
2023/09/23 07:34:43;;;;;;;;;2.33;0.00;;;;;12.81;100.00;101460.09;5117559;27;44800;-78
2023/09/23 07:37:13;;;;;;;;;3.67;1.00;;;;;12.86;100.00;101467.84;5119550;27;44901;-78
2023/09/23 07:39:38;;;;;;;;;2.67;2.00;;;;;12.91;100.00;101473.81;5121331;27;45738;-77
2023/09/23 07:42:04;;;;;;;;;1.00;1.00;;;;;13.04;100.00;101483.78;5115379;27;44740;-77
2023/09/23 07:44:29;;;;;;;;;2.00;2.00;;;;;13.17;100.00;101497.38;5129762;27;44829;-77
2023/09/23 07:46:55;;;;;;;;;3.00;1.00;;;;;13.11;100.00;101476.44;5122789;27;45454;-76
2023/09/23 07:49:20;;;;;;;;;3.00;1.00;;;;;13.34;100.00;101499.25;5132251;27;45341;-77
2023/09/23 07:51:45;;;;;;;;;0.00;0.00;;;;;13.35;100.00;101485.06;5125557;27;44704;-76
2023/09/23 07:54:11;;;;;;;;;2.33;1.33;;;;;13.56;100.00;101505.25;5119380;27;45314;-78
2023/09/23 07:56:36;;;;;;;;;1.00;1.00;;;;;13.74;100.00;101515.03;5119488;27;45904;-77
2023/09/23 07:59:02;;;;;;;;;2.00;1.00;;;;;13.83;100.00;101495.09;5123403;27;51201;-78
2023/09/23 08:01:27;;;;;;;;;0.67;0.33;;;;;13.95;100.00;101498.00;5127261;27;45274;-78
2023/09/23 08:03:52;;;;;;;;;0.33;0.33;;;;;14.08;100.00;101531.00;5120313;27;44878;-77
2023/09/23 08:06:18;;;;;;;;;2.00;0.67;;;;;14.16;100.00;101532.44;5120959;27;46069;-78
2023/09/23 08:08:45;;;;;;;;;3.00;0.33;;;;;14.12;100.00;101518.41;5119193;27;44823;-78
2023/09/23 08:11:11;;;;;;;;;0.00;0.00;;;;;14.22;100.00;101518.81;5130494;27;44819;-78
2023/09/23 08:13:36;;;;;;;;;2.33;1.00;;;;;14.38;100.00;101543.72;5123007;27;45449;-78
2023/09/23 08:16:03;;;;;;;;;0.00;0.00;;;;;14.25;100.00;101508.88;5121816;27;45264;-77
2023/09/23 08:18:28;;;;;;;;;3.00;1.00;;;;;14.47;100.00;101543.25;5124116;27;45453;-77
2023/09/23 08:21:00;;;;;;;;;1.00;1.00;;;;;14.53;100.00;101561.56;5112175;27;45422;-77
2023/09/23 08:23:26;;;;;;;;;1.00;1.00;;;;;14.41;100.00;101538.25;5118525;27;45320;-78
2023/09/23 08:25:52;;;;;;;;;0.00;0.00;;;;;14.57;100.00;101571.13;5125930;27;45406;-78
2023/09/23 08:28:18;;;;;;;;;2.00;1.00;;;;;14.60;100.00;101568.31;5126064;27;44822;-78
2023/09/23 08:30:44;;;;;;;;;0.33;0.33;;;;;14.56;100.00;101548.97;5124865;27;45297;-77
2023/09/23 08:33:10;;;;;;;;;0.00;0.00;;;;;14.74;100.00;101576.44;5115344;27;45469;-77
2023/09/23 08:35:36;;;;;;;;;1.00;1.00;;;;;14.81;100.00;101593.84;5116790;27;45564;-77
2023/09/23 08:38:01;;;;;;;;;0.00;0.00;;;;;14.84;100.00;101590.16;5114936;27;45361;-77
2023/09/23 08:40:33;;;;;;;;;0.33;0.33;;;;;14.82;99.77;101592.03;5122683;27;45338;-76
2023/09/23 08:43:03;;;;;;;;;0.67;0.33;;;;;14.82;99.39;101605.34;5096462;27;45208;-77
2023/09/23 08:45:30;;;;;;;;;0.67;0.67;;;;;14.69;97.04;101585.63;5119405;27;47441;-75
2023/09/23 08:47:57;;;;;;;;;1.00;1.00;;;;;14.69;99.70;101585.63;5107949;27;44738;-75
2023/09/23 08:50:24;;;;;;;;;1.33;1.33;;;;;14.75;99.53;101585.31;5114682;27;45275;-78
2023/09/23 08:52:49;;;;;;;;;1.00;1.00;;;;;14.90;97.74;101603.13;5096289;27;45726;-75
2023/09/23 08:55:16;;;;;;;;;2.00;0.00;;;;;14.92;98.60;101585.28;5101863;27;46583;-75
2023/09/23 08:57:42;;;;;;;;;1.67;1.00;;;;;15.09;96.99;101602.09;5107470;27;45533;-75
2023/09/23 09:00:09;;;;;;;;;3.67;1.00;;;;;15.24;97.21;101616.41;5099795;27;45533;-75
2023/09/23 09:02:34;;;;;;;;;1.00;0.33;;;;;15.32;97.39;101613.31;5103001;27;45494;-75
2023/09/23 09:05:00;;;;;;;;;0.67;0.00;;;;;15.47;100.00;101610.72;5100109;27;45318;-75
2023/09/23 09:07:33;;;;;;;;;1.00;1.00;;;;;15.70;98.43;101613.94;5109545;27;45509;-75
2023/09/23 09:09:58;;;;;;;;;1.67;1.00;;;;;15.89;96.85;101614.63;5103500;27;45374;-75
2023/09/23 09:12:24;;;;;;;;;0.67;0.67;;;;;15.85;93.95;101592.59;5099936;27;45468;-75
2023/09/23 09:14:52;;;;;;;;;0.67;0.00;;;;;16.12;91.12;101632.88;5087147;27;46541;-75
2023/09/23 09:17:20;;;;;;;;;1.00;1.00;;;;;16.12;95.17;101603.50;5091650;27;45357;-74
2023/09/23 09:19:46;;;;;;;;;2.00;0.00;;;;;16.37;88.14;101625.16;5088200;27;45480;-75
2023/09/23 09:22:14;;;;;;;;;1.33;0.67;;;;;16.44;86.08;101626.53;5114148;27;45524;-74
2023/09/23 09:24:40;;;;;;;;;0.33;0.33;;;;;16.56;89.60;101619.63;5105402;27;45543;-75
2023/09/23 09:27:14;;;;;;;;;1.00;0.67;;;;;16.65;88.09;101625.28;5097672;27;45428;-75
2023/09/23 09:29:43;;;;;;;;;1.67;1.00;;;;;16.63;87.07;101612.97;5097622;27;45454;-75
2023/09/23 09:32:10;;;;;;;;;0.33;0.33;;;;;16.69;84.61;101609.09;5092984;27;45324;-75
2023/09/23 09:34:46;;;;;;;;;3.00;0.00;;;;;16.88;85.57;101631.97;5096365;27;46461;-75
2023/09/23 09:37:13;;;;;;;;;0.67;0.00;;;;;16.93;82.82;101627.19;5092321;27;45464;-75
2023/09/23 09:39:49;;;;;;;;;0.00;0.00;;;;;17.01;83.85;101621.38;5085907;27;45374;-74
2023/09/23 09:42:19;;;;;;;;;0.00;0.00;;;;;17.04;83.61;101621.19;5110773;27;45412;-74
2023/09/23 09:44:46;;;;;;;;;1.67;0.33;;;;;17.02;81.69;101605.25;5099220;27;46179;-75
2023/09/23 09:47:13;;;;;;;;;1.67;0.67;;;;;17.12;83.13;101626.91;5104382;27;45739;-76
2023/09/23 09:49:41;;;;;;;;;0.00;0.00;;;;;17.12;82.49;101624.25;5124678;27;44776;-76
2023/09/23 09:52:07;;;;;;;;;1.67;0.00;;;;;17.12;80.71;101614.41;5109597;27;45467;-75
2023/09/23 09:54:36;;;;;;;;;1.00;1.00;;;;;17.19;80.52;101633.59;5097040;27;45450;-75
2023/09/23 09:57:02;;;;;;;;;3.67;1.00;;;;;17.21;80.08;101637.06;5090843;27;45313;-75
2023/09/23 09:59:30;;;;;;;;;1.00;0.00;;;;;17.21;79.69;101637.06;5097105;27;45397;-75
2023/09/23 10:01:56;;;;;;;;;2.00;1.00;;;;;17.19;81.96;101625.59;5096541;27;45439;-75
2023/09/23 10:04:23;;;;;;;;;3.00;2.00;;;;;17.09;80.56;101606.59;5097789;27;45443;-75
2023/09/23 10:06:55;;;;;;;;;1.00;1.00;;;;;17.31;82.63;101637.34;5100017;27;45549;-76
2023/09/23 10:09:31;;;;;;;;;1.67;1.67;;;;;17.39;81.36;101635.91;5096252;27;45804;-75
2023/09/23 10:11:59;;;;;;;;;0.67;0.00;;;;;17.56;81.40;101642.91;5099315;27;45562;-76
2023/09/23 10:14:26;;;;;;;;;0.00;0.00;;;;;17.58;78.64;101652.56;5094251;27;46904;-76
2023/09/23 10:16:59;;;;;;;;;0.00;0.00;;;;;17.51;78.96;101636.94;5067230;27;45286;-77
2023/09/23 10:19:42;;;;;;;;;0.33;0.33;;;;;17.56;78.12;101656.28;5104599;27;45529;-77
2023/09/23 10:22:11;;;;;;;;;0.00;0.00;;;;;17.57;78.09;101653.50;5095207;27;45454;-77
2023/09/23 10:24:36;;;;;;;;;2.00;1.00;;;;;17.59;77.05;101650.75;5094965;27;48022;-78
2023/09/23 10:27:06;;;;;;;;;1.00;0.00;;;;;17.57;77.53;101645.47;5099819;27;45385;-77
2023/09/23 10:29:47;;;;;;;;;1.33;0.00;;;;;17.81;81.52;101653.78;5112796;27;45408;-77
2023/09/23 10:32:17;;;;;;;;;0.67;0.33;;;;;17.90;78.33;101669.25;5098239;27;45520;-77
2023/09/23 10:34:55;;;;;;;;;0.33;0.33;;;;;17.95;77.82;101663.63;5100725;27;47491;-77
2023/09/23 10:37:32;;;;;;;;;2.00;0.00;;;;;18.12;77.52;101660.72;5122505;27;45397;-77
2023/09/23 10:40:06;;;;;;;;;1.67;0.33;;;;;18.22;78.22;101664.50;5097061;27;45736;-76
2023/09/23 10:42:35;;;;;;;;;1.00;1.00;;;;;18.30;76.06;101664.00;5097321;27;45716;-76
2023/09/23 10:45:00;;;;;;;;;1.33;0.00;;;;;18.36;77.09;101666.25;5085104;27;45552;-76
2023/09/23 10:47:26;;;;;;;;;1.00;0.33;;;;;18.40;74.58;101662.44;5109780;27;45318;-77
2023/09/23 10:49:51;;;;;;;;;0.00;0.00;;;;;18.42;74.56;101650.66;5095898;27;45513;-77
2023/09/23 10:52:17;;;;;;;;;0.00;0.00;;;;;18.56;75.82;101673.88;5095118;27;45416;-76
2023/09/23 10:54:42;;;;;;;;;0.67;0.00;;;;;18.58;73.86;101663.94;5098491;27;47166;-77
2023/09/23 10:57:07;;;;;;;;;1.00;0.00;;;;;18.60;73.78;101675.41;5107847;27;45228;-76
2023/09/23 10:59:33;;;;;;;;;0.67;0.00;;;;;18.58;74.96;101667.47;5097282;27;45433;-76
2023/09/23 11:01:59;;;;;;;;;2.00;1.00;;;;;18.63;71.44;101675.19;5098293;27;45491;-76
2023/09/23 11:04:24;;;;;;;;;1.67;0.33;;;;;18.65;74.94;101679.47;5094303;27;47395;-76
2023/09/23 11:06:50;;;;;;;;;1.00;1.00;;;;;18.61;71.79;101685.16;5118643;27;45805;-76
2023/09/23 11:09:19;;;;;;;;;0.33;0.33;;;;;18.58;72.76;101675.53;5098931;27;45399;-76
2023/09/23 11:11:46;;;;;;;;;2.00;1.00;;;;;18.61;72.82;101682.50;5095827;27;45508;-76
2023/09/23 11:14:13;;;;;;;;;2.00;0.33;;;;;18.55;71.49;101696.28;5099240;27;47540;-76
2023/09/23 11:16:42;;;;;;;;;0.00;0.00;;;;;18.51;72.75;101679.56;5099220;27;45398;-76
2023/09/23 11:19:07;;;;;;;;;1.00;1.00;;;;;18.61;73.77;101686.03;5092913;27;45257;-76
2023/09/23 11:21:41;;;;;;;;;1.67;0.67;;;;;18.69;72.67;101697.06;5124040;27;45404;-76